Time;durP1;ratioP1;P1;durP2;ratioP2;P2;SDS_P1;SDS_P2;PMS_P1;PMS_P2;Temp;Humidity;BMP_temperature;BMP_pressure;BME280_temperature;BME280_humidity;BME280_pressure;Samples;Min_cycle;Max_cycle;Signal;HPM_P1;HPM_P2
2023/09/16 00:04:57;;;;;;;4.72;2.20;;;;;;;22.11;67.08;99556.66;10331313;28;97956;-85
2023/09/16 00:10:01;;;;;;;3.65;2.13;;;;;;;22.27;66.86;99551.47;10329522;28;96890;-85
2023/09/16 00:15:06;;;;;;;3.30;1.98;;;;;;;22.15;66.92;99540.13;10323379;28;96766;-85
2023/09/16 00:20:15;;;;;;;4.80;2.15;;;;;;;22.09;67.23;99543.41;10314717;28;98633;-85
2023/09/16 00:25:22;;;;;;;4.32;2.33;;;;;;;21.96;67.75;99550.94;10332543;28;96607;-84
2023/09/16 00:30:26;;;;;;;4.82;2.22;;;;;;;21.91;68.02;99558.56;10303510;28;96980;-85
2023/09/16 00:35:29;;;;;;;3.37;2.10;;;;;;;21.90;67.88;99551.50;10324161;28;96840;-85
2023/09/16 00:40:35;;;;;;;4.55;2.20;;;;;;;21.91;67.94;99561.25;10335414;28;98312;-85
2023/09/16 00:45:41;;;;;;;4.78;2.45;;;;;;;21.81;68.17;99562.28;10335059;28;96756;-86
2023/09/16 00:50:45;;;;;;;3.15;2.05;;;;;;;21.62;68.48;99559.69;10326676;28;96763;-85
2023/09/16 00:55:53;;;;;;;3.00;2.00;;;;;;;21.61;68.60;99558.00;10332988;28;98282;-85
2023/09/16 01:00:57;;;;;;;3.28;2.30;;;;;;;21.80;68.04;99560.59;10333923;28;97390;-85
2023/09/16 01:06:02;;;;;;;3.65;2.10;;;;;;;21.86;68.08;99551.97;10329772;28;96739;-85
2023/09/16 01:11:07;;;;;;;3.15;1.77;;;;;;;21.85;67.95;99553.81;10322020;28;96672;-85
2023/09/16 01:16:19;;;;;;;4.53;2.30;;;;;;;21.75;68.17;99539.63;10334245;28;96567;-87
2023/09/16 01:21:25;;;;;;;3.80;2.20;;;;;;;21.84;68.10;99543.25;10333968;28;96616;-86
2023/09/16 01:26:30;;;;;;;3.70;2.10;;;;;;;21.80;68.19;99542.69;10329128;28;97594;-85
2023/09/16 01:31:33;;;;;;;2.90;2.10;;;;;;;21.80;68.07;99539.16;10321552;28;97179;-86
2023/09/16 01:36:39;;;;;;;5.60;2.27;;;;;;;21.90;67.65;99532.75;10320163;28;99018;-85
2023/09/16 01:41:47;;;;;;;3.35;1.80;;;;;;;21.92;67.66;99529.94;10318285;28;96693;-85
2023/09/16 01:46:55;;;;;;;3.00;1.88;;;;;;;21.85;67.92;99547.63;10330849;28;96711;-85
2023/09/16 01:51:59;;;;;;;3.50;2.10;;;;;;;21.86;67.82;99542.13;10323277;28;96869;-85
2023/09/16 01:57:06;;;;;;;;;;;;;;;21.77;68.52;99552.84;10327930;28;98136;-86
2023/09/16 02:02:11;;;;;;;5.28;2.30;;;;;;;21.80;67.95;99547.19;10329380;28;97272;-85
2023/09/16 02:07:15;;;;;;;3.20;2.10;;;;;;;21.79;68.21;99557.09;10315966;28;96903;-86
2023/09/16 02:12:21;;;;;;;4.23;2.07;;;;;;;21.83;67.81;99563.81;10330573;28;97549;-86
2023/09/16 02:17:25;;;;;;;3.28;1.98;;;;;;;21.60;68.78;99554.50;10335438;28;96784;-87
2023/09/16 02:22:29;;;;;;;2.85;2.05;;;;;;;21.73;68.59;99559.53;10331558;28;99082;-89
2023/09/16 02:27:35;;;;;;;3.45;2.25;;;;;;;21.67;69.26;99557.41;10326753;28;96752;-87
2023/09/16 02:32:39;;;;;;;5.95;2.10;;;;;;;21.71;69.20;99551.59;10333826;28;96934;-87
2023/09/16 02:37:42;;;;;;;4.75;2.50;;;;;;;21.48;70.11;99548.47;10339412;28;96923;-88
2023/09/16 02:42:47;;;;;;;3.80;2.30;;;;;;;21.48;70.85;99547.63;10337650;28;97792;-87
2023/09/16 02:47:51;;;;;;;4.30;2.40;;;;;;;21.38;71.43;99536.94;10331412;28;96696;-87
2023/09/16 02:52:55;;;;;;;3.67;2.35;;;;;;;21.38;71.05;99517.38;10324443;28;97443;-86
2023/09/16 02:58:01;;;;;;;3.70;2.33;;;;;;;21.27;71.82;99521.09;10314591;28;96953;-87
2023/09/16 03:03:05;;;;;;;5.03;2.67;;;;;;;21.11;72.42;99518.13;10335812;28;96738;-86
2023/09/16 03:08:08;;;;;;;3.38;2.00;;;;;;;21.18;72.12;99500.53;10332820;28;97391;-86
2023/09/16 03:13:13;;;;;;;5.35;2.33;;;;;;;21.16;71.76;99491.81;10309128;28;96762;-85
2023/09/16 03:18:16;;;;;;;5.25;2.20;;;;;;;21.15;71.78;99483.91;10334435;28;98916;-85
2023/09/16 03:23:19;;;;;;;3.55;2.28;;;;;;;21.09;72.06;99471.09;10334390;28;96862;-85
2023/09/16 03:28:24;;;;;;;3.72;2.15;;;;;;;20.99;72.08;99459.59;10334086;28;97706;-86
2023/09/16 03:33:27;;;;;;;4.82;2.22;;;;;;;20.83;72.67;99448.63;10333951;28;96855;-85
2023/09/16 03:38:32;;;;;;;2.47;2.00;;;;;;;20.85;72.62;99468.06;10331906;28;96846;-85
2023/09/16 03:43:36;;;;;;;4.60;2.30;;;;;;;21.08;72.04;99458.72;10334295;28;96900;-85
2023/09/16 03:48:40;;;;;;;4.97;2.30;;;;;;;21.02;72.51;99467.31;10334333;28;96841;-85
2023/09/16 03:53:43;;;;;;;3.63;2.40;;;;;;;20.89;72.86;99464.13;10311605;28;98632;-85
2023/09/16 03:58:48;;;;;;;3.13;1.90;;;;;;;20.84;73.26;99461.03;10320798;28;96939;-85
2023/09/16 04:03:54;;;;;;;4.47;3.03;;;;;;;20.83;73.49;99454.00;10328611;28;97076;-86
2023/09/16 04:08:58;;;;;;;4.15;2.13;;;;;;;20.79;73.64;99444.59;10332004;28;96960;-85
2023/09/16 04:14:03;;;;;;;6.47;2.40;;;;;;;20.72;73.32;99427.44;10329301;28;98327;-85
2023/09/16 04:19:06;;;;;;;3.53;2.30;;;;;;;20.72;73.33;99433.63;10328943;28;96967;-86
2023/09/16 04:24:11;;;;;;;4.53;2.60;;;;;;;20.74;73.01;99428.13;10323999;28;96799;-85
2023/09/16 04:29:17;;;;;;;2.97;2.45;;;;;;;20.67;73.18;99435.88;10334357;28;96714;-84
2023/09/16 04:34:20;;;;;;;4.22;2.65;;;;;;;20.71;72.95;99434.59;10332882;28;96899;-86
2023/09/16 04:39:23;;;;;;;3.70;2.50;;;;;;;20.78;72.88;99434.88;10334409;28;96713;-86
2023/09/16 04:44:29;;;;;;;4.90;2.00;;;;;;;20.85;72.55;99435.97;10333006;28;96958;-85
2023/09/16 04:49:33;;;;;;;4.28;2.08;;;;;;;20.85;72.43;99438.66;10333183;28;96818;-85
2023/09/16 04:54:37;;;;;;;3.42;2.30;;;;;;;20.95;72.34;99444.81;10328821;28;96778;-85
2023/09/16 04:59:44;;;;;;;3.13;1.92;;;;;;;20.94;72.52;99435.97;10332586;28;96836;-86
2023/09/16 05:04:48;;;;;;;2.83;1.92;;;;;;;20.66;73.47;99417.31;10333862;28;97041;-86
2023/09/16 05:09:51;;;;;;;2.15;1.45;;;;;;;20.61;72.73;99407.06;10323741;28;96819;-86
2023/09/16 05:14:56;;;;;;;2.42;1.70;;;;;;;20.56;72.92;99413.81;10333788;28;96687;-86
2023/09/16 05:19:59;;;;;;;2.78;1.42;;;;;;;20.59;72.96;99413.50;10333000;28;97664;-85
2023/09/16 05:25:05;;;;;;;3.05;1.83;;;;;;;20.67;72.28;99406.47;10319401;28;96821;-82
2023/09/16 05:30:11;;;;;;;3.40;1.85;;;;;;;20.68;72.44;99410.84;10324068;28;96880;-85
2023/09/16 05:35:14;;;;;;;2.22;1.67;;;;;;;20.70;72.32;99400.00;10324413;28;96760;-86
2023/09/16 05:40:18;;;;;;;3.38;1.98;;;;;;;20.82;72.01;99412.19;10324161;28;97560;-86
2023/09/16 05:45:23;;;;;;;3.88;2.33;;;;;;;20.79;71.92;99399.13;10328099;28;96783;-86
2023/09/16 05:50:27;;;;;;;4.18;2.80;;;;;;;20.82;71.42;99396.16;10329505;28;98537;-87
2023/09/16 05:55:30;;;;;;;3.25;1.95;;;;;;;20.84;71.60;99408.41;10326273;28;96773;-87
2023/09/16 06:00:37;;;;;;;2.17;1.50;;;;;;;20.81;72.04;99415.88;10326599;28;98484;-85
2023/09/16 06:05:40;;;;;;;2.63;1.60;;;;;;;20.88;70.97;99420.47;10329570;28;99225;-86
2023/09/16 06:10:43;;;;;;;6.82;3.17;;;;;;;20.85;71.49;99395.84;10326063;28;98035;-87
2023/09/16 06:15:48;;;;;;;2.78;1.45;;;;;;;20.68;71.94;99386.78;10326780;28;98692;-84
2023/09/16 06:20:51;;;;;;;2.92;1.65;;;;;;;20.55;72.44;99380.88;10323172;28;96766;-84
2023/09/16 06:25:55;;;;;;;2.97;1.60;;;;;;;20.64;72.39;99369.31;10292597;28;97205;-83
2023/09/16 06:30:59;;;;;;;5.15;2.55;;;;;;;20.68;72.24;99391.28;10329854;28;96813;-83
2023/09/16 06:36:02;;;;;;;3.47;1.55;;;;;;;20.60;72.52;99402.69;10331967;28;97009;-82
2023/09/16 06:41:06;;;;;;;3.67;1.83;;;;;;;20.45;73.49;99398.78;10330929;28;96765;-84
2023/09/16 06:46:10;;;;;;;2.00;1.33;;;;;;;20.44;73.52;99380.22;10331198;28;96809;-82
2023/09/16 06:51:14;;;;;;;3.05;1.40;;;;;;;20.25;74.45;99360.50;10321050;28;96788;-83
2023/09/16 06:56:17;;;;;;;2.17;1.45;;;;;;;20.26;74.30;99388.94;10330154;28;96741;-84
2023/09/16 07:01:22;;;;;;;3.08;1.73;;;;;;;20.33;73.89;99395.44;10330150;28;96890;-84
2023/09/16 07:06:26;;;;;;;1.92;1.40;;;;;;;20.28;74.70;99413.69;10335014;28;97000;-82
2023/09/16 07:11:30;;;;;;;2.83;1.50;;;;;;;20.31;74.59;99429.47;10297513;28;96728;-81
2023/09/16 07:16:40;;;;;;;3.67;1.45;;;;;;;20.29;74.57;99441.22;10335820;28;96780;-81
2023/09/16 07:21:43;;;;;;;2.15;1.50;;;;;;;20.38;74.38;99441.28;10326918;28;97317;-83
2023/09/16 07:26:47;;;;;;;2.38;1.55;;;;;;;20.27;75.03;99460.06;10333742;28;96775;-84
2023/09/16 07:31:51;;;;;;;2.95;1.25;;;;;;;20.41;74.68;99456.16;10336503;28;96757;-83
2023/09/16 07:36:56;;;;;;;3.03;1.58;;;;;;;20.38;74.48;99425.25;10336274;28;96804;-81
2023/09/16 07:41:59;;;;;;;4.85;2.15;;;;;;;20.38;74.65;99431.59;10328730;28;97170;-83
2023/09/16 07:47:05;;;;;;;3.30;1.40;;;;;;;20.52;74.23;99442.66;10334590;28;96838;-82
2023/09/16 07:52:08;;;;;;;2.30;1.50;;;;;;;20.54;74.12;99442.50;10325761;28;97224;-79
2023/09/16 07:57:13;;;;;;;2.58;1.67;;;;;;;20.70;73.71;99464.16;10319907;28;96834;-80
2023/09/16 08:02:17;;;;;;;2.05;1.40;;;;;;;20.72;74.11;99460.38;10302482;22;97195;-80
2023/09/16 08:07:21;;;;;;;2.38;1.00;;;;;;;20.55;73.86;99437.03;10279155;28;96541;-91
2023/09/16 08:12:24;;;;;;;3.70;1.40;;;;;;;20.60;73.38;99431.25;10293591;28;96766;-80
2023/09/16 08:17:29;;;;;;;3.30;2.00;;;;;;;20.69;73.13;99439.25;10293620;28;96955;-81
2023/09/16 08:22:33;;;;;;;2.70;1.67;;;;;;;20.65;72.89;99455.72;10294113;28;96834;-81
2023/09/16 08:27:36;;;;;;;2.70;1.27;;;;;;;20.72;72.00;99475.56;10293904;28;97177;-84
2023/09/16 08:32:40;;;;;;;2.28;1.13;;;;;;;20.90;71.23;99492.53;10294047;28;96685;-84
2023/09/16 08:37:44;;;;;;;2.72;1.60;;;;;;;20.91;71.38;99511.13;10293181;28;96725;-86
2023/09/16 08:42:55;;;;;;;2.47;1.63;;;;;;;20.92;71.10;99485.22;10292935;28;96843;-88
2023/09/16 08:48:04;;;;;;;3.13;1.58;;;;;;;20.89;71.84;99488.19;10281343;28;97300;-88
2023/09/16 08:53:11;;;;;;;3.00;1.38;;;;;;;20.88;71.49;99492.69;10283129;28;98715;-86
2023/09/16 08:58:14;;;;;;;4.57;1.77;;;;;;;20.97;71.79;99501.69;10285714;28;96804;-84
2023/09/16 09:03:19;;;;;;;2.87;1.50;;;;;;;20.94;71.74;99501.97;10281125;28;97588;-82
2023/09/16 09:08:23;;;;;;;2.08;1.20;;;;;;;21.02;71.32;99520.81;10289035;28;97597;-83
2023/09/16 09:13:28;;;;;;;2.38;1.55;;;;;;;20.97;71.38;99513.22;10276117;28;98124;-86
2023/09/16 09:18:35;;;;;;;2.38;1.50;;;;;;;20.88;71.66;99521.28;10275814;28;98672;-87
2023/09/16 09:23:39;;;;;;;3.75;1.55;;;;;;;20.83;72.13;99521.69;10283525;28;97546;-87
2023/09/16 09:28:46;;;;;;;2.45;1.60;;;;;;;20.77;72.58;99508.91;10272620;28;98916;-87
2023/09/16 09:33:51;;;;;;;2.45;1.60;;;;;;;20.80;72.56;99497.06;10279204;28;98670;-88
2023/09/16 09:38:57;;;;;;;1.58;1.10;;;;;;;20.86;72.46;99507.22;10284174;28;97523;-86
2023/09/16 09:44:02;;;;;;;1.10;1.00;;;;;;;21.01;71.76;99495.91;10276950;28;98550;-88
2023/09/16 09:49:06;;;;;;;;;;;;;;;20.90;71.51;99493.41;10269088;28;96876;-79
2023/09/16 09:54:10;;;;;;;0.75;0.55;;;;;;;20.87;70.98;99498.19;10277981;28;96828;-84
2023/09/16 09:59:16;;;;;;;2.13;0.80;;;;;;;21.19;69.82;99504.06;10282034;28;97479;-84
2023/09/16 10:04:21;;;;;;;1.10;0.68;;;;;;;21.86;68.46;99501.06;10276860;28;96850;-84
2023/09/16 10:09:24;;;;;;;2.00;0.77;;;;;;;21.96;67.53;99499.19;10279995;28;96828;-87
2023/09/16 10:14:28;;;;;;;1.33;0.80;;;;;;;21.72;67.38;99505.09;10284229;28;97789;-89
2023/09/16 10:19:33;;;;;;;0.82;0.65;;;;;;;21.69;67.27;99517.94;10273280;28;96663;-88
2023/09/16 10:24:36;;;;;;;1.02;0.43;;;;;;;22.30;64.91;99519.84;10291366;28;97330;-89
2023/09/16 10:29:40;;;;;;;1.10;0.70;;;;;;;22.40;64.17;99517.94;10288894;28;96912;-88
2023/09/16 10:34:46;;;;;;;0.90;0.60;;;;;;;22.37;64.20;99504.00;10290987;28;96697;-89
2023/09/16 10:39:51;;;;;;;1.63;0.50;;;;;;;22.32;64.48;99491.06;10287019;28;97544;-77
2023/09/16 10:44:57;;;;;;;2.10;1.10;;;;;;;22.18;65.16;99509.50;10272160;28;97802;-89
2023/09/16 10:50:02;;;;;;;0.95;0.65;;;;;;;22.10;64.99;99539.75;10296177;28;96764;-84
2023/09/16 10:55:13;;;;;;;1.42;0.70;;;;;;;21.94;65.47;99533.31;10295530;28;96748;-81
2023/09/16 11:00:22;;;;;;;1.73;0.68;;;;;;;21.39;65.74;99532.44;10291449;28;97196;-83
2023/09/16 11:05:27;;;;;;;1.38;0.68;;;;;;;21.06;67.56;99531.09;10294295;28;97570;-81
2023/09/16 11:10:30;;;;;;;0.50;0.40;;;;;;;20.97;67.76;99523.94;10287420;28;96831;-81
2023/09/16 11:15:35;;;;;;;1.13;0.80;;;;;;;20.67;69.08;99548.16;10290374;28;96717;-85
2023/09/16 11:20:40;;;;;;;;;;;;;;;20.50;70.51;99537.34;10275088;28;96779;-81
2023/09/16 11:25:44;;;;;;;1.45;0.90;;;;;;;20.40;70.70;99548.03;10256214;28;97084;-83
2023/09/16 11:30:55;;;;;;;2.40;0.90;;;;;;;20.28;71.50;99549.09;10272754;28;97179;-84
2023/09/16 11:36:10;;;;;;;2.38;1.05;;;;;;;20.30;72.04;99556.06;10284578;28;96900;-82
2023/09/16 11:41:13;;;;;;;2.08;0.90;;;;;;;20.23;72.39;99554.88;10292298;28;97511;-85
2023/09/16 11:46:17;;;;;;;1.90;1.10;;;;;;;20.24;72.65;99553.88;10288932;28;96801;-86
2023/09/16 11:51:22;;;;;;;1.92;1.15;;;;;;;20.18;73.76;99546.44;10280685;28;97729;-90
2023/09/16 11:56:27;;;;;;;2.33;1.40;;;;;;;20.15;73.47;99536.00;10292165;28;96801;-84
2023/09/16 12:01:31;;;;;;;;;;;;;;;20.28;74.62;99517.03;10291576;28;96850;-82
2023/09/16 12:06:37;;;;;;;1.50;1.05;;;;;;;20.32;73.55;99542.53;10290932;28;97737;-85
2023/09/16 12:11:40;;;;;;;2.40;1.08;;;;;;;20.21;73.95;99538.13;10289231;28;96850;-84
2023/09/16 12:16:43;;;;;;;1.00;0.63;;;;;;;20.25;73.91;99514.66;10286559;28;96788;-85
2023/09/16 12:21:49;;;;;;;1.65;0.60;;;;;;;20.35;73.71;99534.25;10269708;28;99080;-84
2023/09/16 12:26:53;;;;;;;2.15;1.10;;;;;;;20.38;74.15;99533.13;10291273;28;97681;-81
2023/09/16 12:32:09;;;;;;;1.50;0.70;;;;;;;20.25;74.14;99528.03;10283948;28;97211;-83
2023/09/16 12:37:15;;;;;;;0.70;0.60;;;;;;;20.21;74.17;99513.25;10290984;28;96888;-80
2023/09/16 12:42:19;;;;;;;0.85;0.50;;;;;;;20.11;74.28;99510.56;10288860;28;96914;-80
2023/09/16 12:47:23;;;;;;;0.63;0.50;;;;;;;20.08;73.79;99497.47;10285323;28;98187;-84
2023/09/16 12:52:28;;;;;;;0.95;0.60;;;;;;;20.11;74.00;99504.38;10286048;28;96991;-83
2023/09/16 12:57:32;;;;;;;0.30;0.30;;;;;;;20.09;74.01;99519.69;10288049;28;97670;-82
2023/09/16 13:02:37;;;;;;;0.70;0.30;;;;;;;20.06;74.06;99493.25;10291134;28;96733;-81
2023/09/16 13:07:42;;;;;;;1.90;0.40;;;;;;;20.18;74.07;99521.53;10295446;28;97491;-81
2023/09/16 13:12:45;;;;;;;0.70;0.30;;;;;;;20.28;73.89;99520.56;10287992;28;97275;-80
2023/09/16 13:17:55;;;;;;;1.00;0.50;;;;;;;20.30;73.93;99537.34;10286473;28;96889;-82
2023/09/16 13:23:00;;;;;;;0.77;0.60;;;;;;;20.46;73.54;99530.59;10282537;28;97560;-78
2023/09/16 13:28:12;;;;;;;0.75;0.40;;;;;;;20.48;73.99;99536.66;10285723;28;98651;-78
2023/09/16 13:33:16;;;;;;;0.75;0.50;;;;;;;20.58;73.77;99537.50;10288062;28;97036;-79
2023/09/16 13:38:21;;;;;;;0.25;0.20;;;;;;;20.56;73.73;99544.81;10289022;28;97289;-88
2023/09/16 13:43:24;;;;;;;0.45;0.38;;;;;;;20.61;74.29;99546.06;10289785;28;96736;-78
2023/09/16 13:48:28;;;;;;;0.60;0.37;;;;;;;20.68;74.77;99538.31;10287460;28;97029;-77
2023/09/16 13:53:33;;;;;;;1.55;0.28;;;;;;;20.87;74.12;99543.66;10286580;28;96749;-77
2023/09/16 13:58:37;;;;;;;0.80;0.40;;;;;;;21.19;73.43;99528.16;10287687;28;98361;-77
2023/09/16 14:03:40;;;;;;;6.17;3.00;;;;;;;21.67;72.49;99514.56;10288452;28;98650;-78
2023/09/16 14:08:45;;;;;;;62.75;24.80;;;;;;;21.88;72.00;99505.31;10288644;28;96729;-79
2023/09/16 14:13:48;;;;;;;25.60;11.18;;;;;;;22.08;71.99;99514.94;10289543;28;97199;-79
2023/09/16 14:18:52;;;;;;;5.47;2.55;;;;;;;22.63;70.62;99505.75;10284114;28;97295;-78
2023/09/16 14:23:56;;;;;;;1.60;1.07;;;;;;;22.77;70.57;99487.41;10287441;28;97146;-87
2023/09/16 14:29:00;;;;;;;1.30;0.80;;;;;;;22.79;70.44;99488.13;10287375;28;96943;-82
2023/09/16 14:34:03;;;;;;;1.73;0.90;;;;;;;22.90;69.67;99488.72;10285252;28;97914;-80
2023/09/16 14:39:09;;;;;;;1.60;1.00;;;;;;;23.10;68.33;99465.19;10289375;28;97037;-79
2023/09/16 14:44:12;;;;;;;0.73;0.50;;;;;;;22.64;68.88;99469.06;10289337;28;97553;-79
2023/09/16 14:49:16;;;;;;;0.93;0.50;;;;;;;22.14;69.92;99484.84;10260943;28;96753;-80
2023/09/16 14:54:21;;;;;;;;;;;;;;;21.83;70.36;99494.16;10289906;28;96992;-79
2023/09/16 14:59:25;;;;;;;1.17;0.57;;;;;;;21.67;70.18;99495.81;10279244;28;96837;-79
2023/09/16 15:04:28;;;;;;;0.80;0.35;;;;;;;21.43;70.38;99486.50;10278314;28;97115;-79
2023/09/16 15:09:33;;;;;;;1.00;0.20;;;;;;;21.38;70.41;99486.09;10287548;28;97544;-79
2023/09/16 15:14:36;;;;;;;1.05;0.40;;;;;;;21.35;70.44;99488.22;10284995;28;98509;-79
2023/09/16 15:19:39;;;;;;;0.45;0.30;;;;;;;21.42;70.13;99473.25;10285348;28;97329;-80
2023/09/16 15:24:45;;;;;;;1.40;0.70;;;;;;;21.49;70.06;99485.91;10287742;28;96615;-79
2023/09/16 15:29:48;;;;;;;1.00;0.57;;;;;;;21.61;69.47;99491.06;10295730;28;97041;-80
2023/09/16 15:34:51;;;;;;;0.70;0.50;;;;;;;21.68;69.47;99474.25;10286095;28;96881;-79
2023/09/16 15:39:56;;;;;;;2.22;1.17;;;;;;;21.93;69.61;99476.22;10293512;28;96713;-80
2023/09/16 15:44:59;;;;;;;1.40;0.70;;;;;;;22.09;69.67;99487.13;10291599;28;96904;-81
2023/09/16 15:50:02;;;;;;;1.23;0.70;;;;;;;22.82;68.20;99482.47;10295079;28;96686;-85
2023/09/16 15:55:08;;;;;;;2.17;1.03;;;;;;;22.63;69.18;99494.16;10287782;28;97673;-83
2023/09/16 16:00:12;;;;;;;1.50;0.80;;;;;;;22.37;70.71;99501.31;10292946;28;97023;-83
2023/09/16 16:05:17;;;;;;;0.57;0.45;;;;;;;22.21;71.09;99491.28;10290608;28;96993;-83
2023/09/16 16:10:24;;;;;;;0.55;0.45;;;;;;;21.95;71.48;99481.44;10290507;28;98510;-82
2023/09/16 16:15:28;;;;;;;1.10;0.70;;;;;;;21.98;71.28;99489.16;10289099;28;97246;-83
2023/09/16 16:20:33;;;;;;;0.60;0.47;;;;;;;22.02;71.41;99482.53;10290699;28;98779;-83
2023/09/16 16:25:37;;;;;;;;;;;;;;;21.98;71.57;99486.47;10285699;28;96885;-84
2023/09/16 16:30:40;;;;;;;0.30;0.27;;;;;;;21.83;71.42;99496.84;10293001;28;97152;-83
2023/09/16 16:35:44;;;;;;;0.88;0.65;;;;;;;21.83;71.40;99504.88;10290948;28;96810;-83
2023/09/16 16:40:48;;;;;;;1.20;0.45;;;;;;;21.51;71.81;99501.81;10285671;28;97768;-80
2023/09/16 16:45:51;;;;;;;0.45;0.40;;;;;;;21.28;72.59;99490.66;10289455;28;97773;-80
2023/09/16 16:50:55;;;;;;;0.85;0.50;;;;;;;21.24;72.73;99489.25;10285568;28;99213;-81
2023/09/16 16:55:59;;;;;;;2.75;1.10;;;;;;;21.46;72.08;99496.06;10286858;28;96811;-79
2023/09/16 17:01:03;;;;;;;2.28;0.60;;;;;;;21.48;72.27;99488.75;10285259;28;97140;-81
2023/09/16 17:06:07;;;;;;;1.90;1.10;;;;;;;21.54;72.39;99498.84;10272140;28;98657;-81
2023/09/16 17:11:12;;;;;;;2.63;1.20;;;;;;;21.68;71.71;99484.97;10287445;28;96950;-82
2023/09/16 17:16:17;;;;;;;3.67;2.00;;;;;;;21.82;71.10;99494.31;10289626;28;96962;-81
2023/09/16 17:21:20;;;;;;;5.93;2.85;;;;;;;21.77;71.29;99505.50;10290711;28;97682;-81
2023/09/16 17:26:25;;;;;;;6.07;3.20;;;;;;;21.80;71.48;99509.69;10277174;28;98650;-81
2023/09/16 17:31:28;;;;;;;0.98;0.63;;;;;;;21.73;71.61;99505.97;10289118;28;96747;-80
2023/09/16 17:36:32;;;;;;;0.98;0.77;;;;;;;21.78;71.09;99499.13;10287458;28;96998;-80
2023/09/16 17:41:37;;;;;;;;;;;;;;;21.78;71.06;99496.47;10284625;28;97674;-79
2023/09/16 17:46:40;;;;;;;2.07;1.10;;;;;;;21.56;71.69;99496.88;10282130;28;98428;-79
2023/09/16 17:51:44;;;;;;;1.33;0.80;;;;;;;21.63;71.59;99492.59;10283492;28;98369;-81
2023/09/16 17:56:48;;;;;;;1.43;0.80;;;;;;;21.55;71.49;99495.19;10260996;28;96665;-81
2023/09/16 18:01:52;;;;;;;0.52;0.50;;;;;;;21.43;72.41;99488.34;10286320;28;96798;-81
2023/09/16 18:06:55;;;;;;;2.03;0.97;;;;;;;21.27;72.65;99493.47;10285949;28;97207;-82
2023/09/16 18:12:03;;;;;;;19.23;8.98;;;;;;;21.27;72.39;99488.13;10290440;28;97180;-79
2023/09/16 18:17:06;;;;;;;14.52;6.90;;;;;;;21.25;72.59;99482.06;10285987;28;97725;-84
2023/09/16 18:22:09;;;;;;;15.43;6.28;;;;;;;21.16;72.93;99488.28;10289134;28;96833;-87
2023/09/16 18:27:14;;;;;;;13.95;5.72;;;;;;;21.02;73.09;99496.75;10286455;28;97388;-81
2023/09/16 18:32:17;;;;;;;7.03;3.38;;;;;;;20.82;73.89;99492.44;10290338;28;96714;-81
2023/09/16 18:37:21;;;;;;;5.28;2.80;;;;;;;20.74;74.29;99495.00;10278234;28;96779;-81
2023/09/16 18:42:25;;;;;;;2.17;1.50;;;;;;;20.73;74.09;99495.97;10288247;28;96935;-81
2023/09/16 18:47:29;;;;;;;4.13;2.55;;;;;;;20.71;74.37;99519.31;10289084;28;96759;-81
2023/09/16 18:52:33;;;;;;;4.50;2.40;;;;;;;20.64;74.85;99523.53;10289179;28;97012;-81
2023/09/16 18:57:38;;;;;;;6.60;3.40;;;;;;;20.63;75.01;99524.53;10289915;28;96825;-81
2023/09/16 19:02:41;;;;;;;6.88;3.42;;;;;;;20.61;75.45;99531.84;10296328;28;97695;-81
2023/09/16 19:07:44;;;;;;;4.40;2.28;;;;;;;20.64;75.29;99537.75;10296370;28;97052;-81
2023/09/16 19:12:52;;;;;;;7.55;3.35;;;;;;;20.60;75.63;99539.03;10295434;28;96893;-81
2023/09/16 19:17:55;;;;;;;5.20;3.00;;;;;;;20.70;75.31;99544.38;10295094;28;97142;-81
2023/09/16 19:23:00;;;;;;;5.10;2.72;;;;;;;20.66;75.73;99546.50;10295706;28;96808;-82
2023/09/16 19:28:05;;;;;;;5.53;2.50;;;;;;;20.66;75.50;99548.31;10295334;28;96767;-82
2023/09/16 19:33:08;;;;;;;5.18;2.92;;;;;;;20.68;75.64;99573.94;10284348;28;96840;-79
2023/09/16 19:38:11;;;;;;;5.13;2.53;;;;;;;20.73;75.22;99571.69;10294959;28;96759;-86
2023/09/16 19:43:16;;;;;;;3.53;2.13;;;;;;;20.76;75.08;99573.22;10292579;28;96840;-89
2023/09/16 19:48:19;;;;;;;7.22;3.70;;;;;;;20.73;75.48;99579.69;10292731;28;96798;-79
2023/09/16 19:53:23;;;;;;;6.75;3.35;;;;;;;20.59;75.43;99592.63;10283372;28;97505;-80
2023/09/16 19:58:28;;;;;;;4.38;2.55;;;;;;;20.68;75.17;99589.13;10292526;28;97071;-84
2023/09/16 20:03:31;;;;;;;2.88;2.08;;;;;;;20.60;75.78;99591.66;10294141;28;96757;-83
2023/09/16 20:08:35;;;;;;;6.07;2.28;;;;;;;20.63;75.72;99599.41;10286008;28;97035;-85
2023/09/16 20:13:40;;;;;;;4.20;1.60;;;;;;;20.63;75.67;99599.41;10293350;28;96799;-85
2023/09/16 20:18:43;;;;;;;3.67;1.55;;;;;;;20.52;76.41;99594.16;10293382;28;97990;-84
2023/09/16 20:23:46;;;;;;;3.83;1.60;;;;;;;20.52;76.03;99611.06;10282828;28;96823;-84
2023/09/16 20:28:52;;;;;;;3.10;1.77;;;;;;;20.60;75.99;99613.88;10305436;22;97669;-85
2023/09/16 20:33:55;;;;;;;2.75;1.30;;;;;;;20.57;76.18;99613.34;10332291;28;96837;-86
2023/09/16 20:39:13;;;;;;;2.75;1.55;;;;;;;20.60;75.87;99611.19;10330773;28;96832;-83
2023/09/16 20:44:17;;;;;;;3.03;1.57;;;;;;;20.51;76.08;99622.75;10333336;28;97511;-84
2023/09/16 20:49:20;;;;;;;2.35;1.40;;;;;;;20.47;76.07;99625.81;10334197;28;97081;-84
2023/09/16 20:54:24;;;;;;;3.60;1.40;;;;;;;20.54;75.79;99634.97;10334786;28;96822;-84
2023/09/16 20:59:28;;;;;;;3.70;1.67;;;;;;;20.55;76.04;99650.06;10334286;28;97214;-83
2023/09/16 21:04:32;;;;;;;2.38;1.45;;;;;;;20.45;76.22;99651.84;10330802;28;96823;-84
2023/09/16 21:09:35;;;;;;;3.70;1.65;;;;;;;20.42;76.10;99657.47;10323140;28;96815;-83
2023/09/16 21:14:40;;;;;;;4.80;1.52;;;;;;;20.43;75.81;99648.47;10317295;28;97787;-83
2023/09/16 21:19:43;;;;;;;2.17;1.10;;;;;;;20.41;75.66;99650.44;10331809;28;98366;-85
2023/09/16 21:24:48;;;;;;;2.50;1.20;;;;;;;20.39;75.41;99647.91;10323752;28;98316;-86
2023/09/16 21:29:52;;;;;;;2.17;1.15;;;;;;;20.38;75.41;99644.38;10319725;28;97619;-85
2023/09/16 21:34:55;;;;;;;3.00;1.70;;;;;;;20.36;75.45;99653.50;10329532;28;96972;-85
2023/09/16 21:39:59;;;;;;;1.92;1.20;;;;;;;20.24;75.67;99663.44;10330723;28;96713;-85
2023/09/16 21:45:05;;;;;;;2.17;1.37;;;;;;;20.02;75.76;99665.47;10332031;28;97779;-85
2023/09/16 21:50:09;;;;;;;3.90;1.77;;;;;;;20.09;76.15;99669.28;10329583;28;97000;-86
2023/09/16 21:55:12;;;;;;;2.60;1.77;;;;;;;20.16;75.81;99673.97;10330360;28;97182;-85
2023/09/16 22:00:24;;;;;;;2.80;1.20;;;;;;;20.10;75.81;99669.13;10330917;28;96969;-85
2023/09/16 22:05:29;;;;;;;2.85;1.05;;;;;;;19.97;76.03;99671.22;10326115;28;97815;-85
2023/09/16 22:10:34;;;;;;;2.92;1.15;;;;;;;19.95;75.87;99669.63;10316657;28;98725;-85
2023/09/16 22:15:39;;;;;;;2.80;1.20;;;;;;;19.89;76.15;99679.03;10331363;28;98720;-85
2023/09/16 22:20:42;;;;;;;2.30;1.15;;;;;;;19.73;76.99;99662.66;10329356;28;96930;-86
2023/09/16 22:25:45;;;;;;;2.67;1.40;;;;;;;19.84;76.69;99672.41;10329032;28;98656;-85
2023/09/16 22:30:50;;;;;;;3.22;1.27;;;;;;;19.88;76.38;99669.34;10329088;28;96880;-86
2023/09/16 22:35:53;;;;;;;2.08;1.17;;;;;;;19.72;76.63;99674.31;10329773;28;96781;-84
2023/09/16 22:40:57;;;;;;;1.85;1.10;;;;;;;19.84;76.76;99675.91;10338022;28;96786;-85
2023/09/16 22:46:01;;;;;;;2.92;1.00;;;;;;;19.86;76.34;99671.28;10308180;28;96799;-87
2023/09/16 22:51:05;;;;;;;2.50;1.30;;;;;;;19.74;76.83;99688.38;10335485;28;98860;-86
2023/09/16 22:56:08;;;;;;;3.47;1.52;;;;;;;19.73;76.87;99681.34;10339215;28;96820;-85
2023/09/16 23:01:12;;;;;;;1.65;1.13;;;;;;;19.76;76.89;99682.91;10336527;28;96876;-86
2023/09/16 23:06:16;;;;;;;2.08;1.20;;;;;;;19.64;77.51;99676.78;10333278;28;98331;-87
2023/09/16 23:11:19;;;;;;;2.17;1.15;;;;;;;19.65;77.45;99667.78;10334270;28;96877;-86
2023/09/16 23:16:23;;;;;;;2.72;1.20;;;;;;;19.61;77.35;99669.06;10336452;28;96740;-86
2023/09/16 23:21:27;;;;;;;2.00;1.20;;;;;;;19.44;78.37;99661.63;10334482;28;98142;-86
2023/09/16 23:26:30;;;;;;;2.60;1.25;;;;;;;19.40;78.45;99660.22;10335347;28;99081;-86
2023/09/16 23:31:35;;;;;;;3.83;1.15;;;;;;;19.40;78.21;99656.66;10335369;28;97110;-85
2023/09/16 23:36:38;;;;;;;1.88;1.08;;;;;;;19.32;78.09;99645.81;10324862;28;96796;-86
2023/09/16 23:41:41;;;;;;;1.45;0.98;;;;;;;19.26;78.36;99640.00;10312720;28;96703;-86